sensor_id;sensor_type;location;lat;lon;timestamp;pressure;altitude;pressure_sealevel;temperature;humidity
43312;BME280;30041;48.300;16.352;2023-07-28T00:01:27;99149.94;;;24.16;42.76
43312;BME280;30041;48.300;16.352;2023-07-28T00:03:52;99145.56;;;24.15;42.50
43312;BME280;30041;48.300;16.352;2023-07-28T00:06:18;99141.00;;;24.16;42.94
43312;BME280;30041;48.300;16.352;2023-07-28T00:08:43;99142.06;;;24.15;42.96
43312;BME280;30041;48.300;16.352;2023-07-28T00:11:10;99139.09;;;24.16;42.84
43312;BME280;30041;48.300;16.352;2023-07-28T00:13:35;99132.03;;;24.15;43.02
43312;BME280;30041;48.300;16.352;2023-07-28T00:16:01;99144.22;;;24.13;42.71
43312;BME280;30041;48.300;16.352;2023-07-28T00:18:26;99149.09;;;24.11;42.87
43312;BME280;30041;48.300;16.352;2023-07-28T00:20:52;99143.97;;;24.09;42.90
43312;BME280;30041;48.300;16.352;2023-07-28T00:23:17;99149.38;;;24.09;42.50
43312;BME280;30041;48.300;16.352;2023-07-28T00:25:43;99152.88;;;24.10;42.48
43312;BME280;30041;48.300;16.352;2023-07-28T00:28:08;99165.31;;;24.11;42.50
43312;BME280;30041;48.300;16.352;2023-07-28T00:30:34;99161.81;;;24.10;42.87
43312;BME280;30041;48.300;16.352;2023-07-28T00:32:59;99152.88;;;24.10;42.67
43312;BME280;30041;48.300;16.352;2023-07-28T00:35:25;99162.06;;;24.09;42.74
43312;BME280;30041;48.300;16.352;2023-07-28T00:37:50;99162.63;;;24.11;42.52
43312;BME280;30041;48.300;16.352;2023-07-28T00:40:16;99160.19;;;24.09;42.55
43312;BME280;30041;48.300;16.352;2023-07-28T00:42:41;99157.75;;;24.08;43.09
43312;BME280;30041;48.300;16.352;2023-07-28T00:45:07;99158.81;;;24.07;42.87
43312;BME280;30041;48.300;16.352;2023-07-28T00:47:33;99153.41;;;24.07;42.85
43312;BME280;30041;48.300;16.352;2023-07-28T00:49:58;99151.53;;;24.07;42.96
43312;BME280;30041;48.300;16.352;2023-07-28T00:52:24;99155.31;;;24.06;42.92
43312;BME280;30041;48.300;16.352;2023-07-28T00:54:49;99154.50;;;24.06;42.77
43312;BME280;30041;48.300;16.352;2023-07-28T00:57:15;99152.59;;;24.06;42.94
43312;BME280;30041;48.300;16.352;2023-07-28T00:59:40;99153.41;;;24.07;43.25
43312;BME280;30041;48.300;16.352;2023-07-28T01:02:06;99145.28;;;24.07;43.17
43312;BME280;30041;48.300;16.352;2023-07-28T01:04:32;99142.56;;;24.07;43.06
43312;BME280;30041;48.300;16.352;2023-07-28T01:07:04;99144.22;;;24.08;43.05
43312;BME280;30041;48.300;16.352;2023-07-28T01:09:46;99144.47;;;24.06;42.96
43312;BME280;30041;48.300;16.352;2023-07-28T01:12:18;99140.16;;;24.05;42.87
43312;BME280;30041;48.300;16.352;2023-07-28T01:14:43;99136.63;;;24.05;43.31
43312;BME280;30041;48.300;16.352;2023-07-28T01:17:09;99138.00;;;24.07;43.15
43312;BME280;30041;48.300;16.352;2023-07-28T01:19:34;99133.13;;;24.09;43.27
43312;BME280;30041;48.300;16.352;2023-07-28T01:22:22;99128.78;;;24.08;42.96
43312;BME280;30041;48.300;16.352;2023-07-28T01:25:22;99128.53;;;24.05;43.06
43312;BME280;30041;48.300;16.352;2023-07-28T01:27:54;99123.91;;;24.05;42.97
43312;BME280;30041;48.300;16.352;2023-07-28T01:30:21;99125.81;;;24.05;43.08
43312;BME280;30041;48.300;16.352;2023-07-28T01:32:48;99135.53;;;24.06;43.17
43312;BME280;30041;48.300;16.352;2023-07-28T01:35:13;99128.53;;;24.05;43.36
43312;BME280;30041;48.300;16.352;2023-07-28T01:37:38;99123.38;;;24.03;43.05
43312;BME280;30041;48.300;16.352;2023-07-28T01:40:04;99134.19;;;24.03;43.11
43312;BME280;30041;48.300;16.352;2023-07-28T01:42:30;99139.84;;;24.01;43.16
43312;BME280;30041;48.300;16.352;2023-07-28T01:44:56;99125.81;;;24.05;43.29
43312;BME280;30041;48.300;16.352;2023-07-28T01:47:21;99127.69;;;24.04;43.28
43312;BME280;30041;48.300;16.352;2023-07-28T01:49:47;99123.38;;;24.03;43.29
43312;BME280;30041;48.300;16.352;2023-07-28T01:52:12;99116.31;;;24.02;43.49
43312;BME280;30041;48.300;16.352;2023-07-28T01:54:38;99114.44;;;24.02;43.22
43312;BME280;30041;48.300;16.352;2023-07-28T01:57:03;99113.59;;;24.02;43.21
43312;BME280;30041;48.300;16.352;2023-07-28T01:59:31;99117.16;;;24.02;43.46
43312;BME280;30041;48.300;16.352;2023-07-28T02:01:56;99110.88;;;24.02;43.41
43312;BME280;30041;48.300;16.352;2023-07-28T02:04:22;99108.47;;;24.00;43.56
43312;BME280;30041;48.300;16.352;2023-07-28T02:06:47;99106.56;;;24.01;43.60
43312;BME280;30041;48.300;16.352;2023-07-28T02:09:13;99106.56;;;24.01;43.53
43312;BME280;30041;48.300;16.352;2023-07-28T02:11:38;99111.19;;;24.00;43.78
43312;BME280;30041;48.300;16.352;2023-07-28T02:14:04;99107.63;;;24.00;43.72
43312;BME280;30041;48.300;16.352;2023-07-28T02:16:29;99103.06;;;24.00;43.51
43312;BME280;30041;48.300;16.352;2023-07-28T02:18:55;99106.81;;;23.99;43.57
43312;BME280;30041;48.300;16.352;2023-07-28T02:21:20;99111.44;;;23.99;43.57
43312;BME280;30041;48.300;16.352;2023-07-28T02:23:46;99099.81;;;23.98;43.78
43312;BME280;30041;48.300;16.352;2023-07-28T02:26:11;99108.72;;;23.99;43.88
43312;BME280;30041;48.300;16.352;2023-07-28T02:28:37;99123.34;;;23.98;43.81
43312;BME280;30041;48.300;16.352;2023-07-28T02:31:02;99116.84;;;23.99;43.88
43312;BME280;30041;48.300;16.352;2023-07-28T02:33:28;99124.16;;;23.98;43.72
43312;BME280;30041;48.300;16.352;2023-07-28T02:35:53;99109.81;;;23.98;43.96
43312;BME280;30041;48.300;16.352;2023-07-28T02:38:19;99107.13;;;23.98;44.09
43312;BME280;30041;48.300;16.352;2023-07-28T02:40:44;99111.69;;;23.97;43.76
43312;BME280;30041;48.300;16.352;2023-07-28T02:43:09;99107.94;;;23.98;44.17
43312;BME280;30041;48.300;16.352;2023-07-28T02:45:35;99100.59;;;23.99;44.20
43312;BME280;30041;48.300;16.352;2023-07-28T02:48:00;99098.16;;;23.97;43.93
43312;BME280;30041;48.300;16.352;2023-07-28T02:50:26;99103.56;;;23.97;43.93
43312;BME280;30041;48.300;16.352;2023-07-28T02:52:51;99110.88;;;23.97;44.22
43312;BME280;30041;48.300;16.352;2023-07-28T02:55:17;99107.94;;;23.98;44.04
43312;BME280;30041;48.300;16.352;2023-07-28T02:57:43;99102.78;;;23.97;43.89
43312;BME280;30041;48.300;16.352;2023-07-28T03:00:09;99105.47;;;23.97;44.32
43312;BME280;30041;48.300;16.352;2023-07-28T03:02:34;99104.66;;;23.96;44.40
43312;BME280;30041;48.300;16.352;2023-07-28T03:05:00;99101.16;;;23.96;44.39
43312;BME280;30041;48.300;16.352;2023-07-28T03:07:25;99100.88;;;23.97;44.48
43312;BME280;30041;48.300;16.352;2023-07-28T03:09:51;99095.75;;;23.96;44.50
43312;BME280;30041;48.300;16.352;2023-07-28T03:12:16;99091.41;;;23.95;44.49
43312;BME280;30041;48.300;16.352;2023-07-28T03:14:41;99096.56;;;23.96;44.40
43312;BME280;30041;48.300;16.352;2023-07-28T03:17:07;99091.13;;;23.96;44.46
43312;BME280;30041;48.300;16.352;2023-07-28T03:19:32;99090.03;;;23.97;44.59
43312;BME280;30041;48.300;16.352;2023-07-28T03:21:58;99079.22;;;23.97;44.56
43312;BME280;30041;48.300;16.352;2023-07-28T03:24:23;99087.63;;;23.96;44.62
43312;BME280;30041;48.300;16.352;2023-07-28T03:26:49;99087.63;;;23.96;44.49
43312;BME280;30041;48.300;16.352;2023-07-28T03:29:14;99083.28;;;23.95;44.49
43312;BME280;30041;48.300;16.352;2023-07-28T03:31:40;99093.03;;;23.96;44.89
43312;BME280;30041;48.300;16.352;2023-07-28T03:34:05;99084.63;;;23.97;44.46
43312;BME280;30041;48.300;16.352;2023-07-28T03:36:31;99086.78;;;23.95;44.67
43312;BME280;30041;48.300;16.352;2023-07-28T03:38:56;99093.03;;;23.96;44.79
43312;BME280;30041;48.300;16.352;2023-07-28T03:41:22;99089.50;;;23.95;44.75
43312;BME280;30041;48.300;16.352;2023-07-28T03:43:47;99087.63;;;23.96;44.75
43312;BME280;30041;48.300;16.352;2023-07-28T03:46:13;99081.38;;;23.95;44.81
43312;BME280;30041;48.300;16.352;2023-07-28T03:48:38;99075.97;;;23.95;44.81
43312;BME280;30041;48.300;16.352;2023-07-28T03:51:04;99079.50;;;23.96;44.88
43312;BME280;30041;48.300;16.352;2023-07-28T03:53:29;99065.13;;;23.95;44.81
43312;BME280;30041;48.300;16.352;2023-07-28T03:55:55;99073.53;;;23.94;44.97
43312;BME280;30041;48.300;16.352;2023-07-28T03:58:20;99077.06;;;23.94;45.07
43312;BME280;30041;48.300;16.352;2023-07-28T04:00:46;99085.97;;;23.95;45.10
43312;BME280;30041;48.300;16.352;2023-07-28T04:03:11;99085.97;;;23.95;45.08
43312;BME280;30041;48.300;16.352;2023-07-28T04:05:37;99087.06;;;23.94;45.08
43312;BME280;30041;48.300;16.352;2023-07-28T04:08:02;99078.13;;;23.93;44.99
43312;BME280;30041;48.300;16.352;2023-07-28T04:10:28;99083.28;;;23.95;45.14
43312;BME280;30041;48.300;16.352;2023-07-28T04:12:53;99090.31;;;23.96;44.83
43312;BME280;30041;48.300;16.352;2023-07-28T04:15:19;99078.41;;;23.92;44.99
43312;BME280;30041;48.300;16.352;2023-07-28T04:17:44;99073.53;;;23.94;45.23
43312;BME280;30041;48.300;16.352;2023-07-28T04:20:10;99078.13;;;23.93;44.85
43312;BME280;30041;48.300;16.352;2023-07-28T04:22:36;99085.19;;;23.94;44.66
43312;BME280;30041;48.300;16.352;2023-07-28T04:25:01;99084.38;;;23.94;44.71
43312;BME280;30041;48.300;16.352;2023-07-28T04:27:27;99085.19;;;23.94;44.61
43312;BME280;30041;48.300;16.352;2023-07-28T04:29:52;99087.06;;;23.94;44.83
43312;BME280;30041;48.300;16.352;2023-07-28T04:32:17;99085.72;;;23.91;44.78
43312;BME280;30041;48.300;16.352;2023-07-28T04:34:43;99081.91;;;23.92;44.96
43312;BME280;30041;48.300;16.352;2023-07-28T04:37:08;99082.47;;;23.94;44.83
43312;BME280;30041;48.300;16.352;2023-07-28T04:39:34;99089.78;;;23.94;44.57
43312;BME280;30041;48.300;16.352;2023-07-28T04:41:59;99092.50;;;23.94;44.41
43312;BME280;30041;48.300;16.352;2023-07-28T04:44:25;99080.03;;;23.93;44.57
43312;BME280;30041;48.300;16.352;2023-07-28T04:46:50;99088.94;;;23.93;44.47
43312;BME280;30041;48.300;16.352;2023-07-28T04:49:16;99089.78;;;23.94;44.46
43312;BME280;30041;48.300;16.352;2023-07-28T04:51:41;99087.34;;;23.92;44.36
43312;BME280;30041;48.300;16.352;2023-07-28T04:54:07;99094.66;;;23.92;43.85
43312;BME280;30041;48.300;16.352;2023-07-28T04:56:32;99090.03;;;23.92;44.16
43312;BME280;30041;48.300;16.352;2023-07-28T04:58:58;99093.00;;;23.91;44.29
43312;BME280;30041;48.300;16.352;2023-07-28T05:01:23;99097.34;;;23.92;44.24
43312;BME280;30041;48.300;16.352;2023-07-28T05:03:49;99089.50;;;23.90;44.42
43312;BME280;30041;48.300;16.352;2023-07-28T05:06:14;99091.94;;;23.92;44.18
43312;BME280;30041;48.300;16.352;2023-07-28T05:08:40;99093.84;;;23.91;44.33
43312;BME280;30041;48.300;16.352;2023-07-28T05:11:05;99093.50;;;23.77;44.61
43312;BME280;30041;48.300;16.352;2023-07-28T05:13:31;99102.13;;;23.74;44.71
43312;BME280;30041;48.300;16.352;2023-07-28T05:15:56;99102.09;;;23.64;43.79
43312;BME280;30041;48.300;16.352;2023-07-28T05:18:22;99105.88;;;23.58;44.65
43312;BME280;30041;48.300;16.352;2023-07-28T05:20:47;99104.47;;;23.55;45.20
43312;BME280;30041;48.300;16.352;2023-07-28T05:23:13;99109.09;;;23.55;45.42
43312;BME280;30041;48.300;16.352;2023-07-28T05:25:38;99104.47;;;23.50;44.12
43312;BME280;30041;48.300;16.352;2023-07-28T05:28:03;99106.91;;;23.52;43.87
43312;BME280;30041;48.300;16.352;2023-07-28T05:30:29;99100.69;;;23.51;44.04
43312;BME280;30041;48.300;16.352;2023-07-28T05:32:54;99116.09;;;23.51;43.72
43312;BME280;30041;48.300;16.352;2023-07-28T05:35:20;99112.59;;;23.50;43.74
43312;BME280;30041;48.300;16.352;2023-07-28T05:37:46;99108.78;;;23.46;43.82
43312;BME280;30041;48.300;16.352;2023-07-28T05:40:12;99109.31;;;23.48;43.41
43312;BME280;30041;48.300;16.352;2023-07-28T05:42:37;99113.63;;;23.44;44.32
43312;BME280;30041;48.300;16.352;2023-07-28T05:45:03;99113.91;;;23.42;44.58
43312;BME280;30041;48.300;16.352;2023-07-28T05:47:29;99122.03;;;23.42;44.33
43312;BME280;30041;48.300;16.352;2023-07-28T05:49:54;99115.81;;;23.42;45.35
43312;BME280;30041;48.300;16.352;2023-07-28T05:52:20;99125.28;;;23.45;45.65
43312;BME280;30041;48.300;16.352;2023-07-28T05:54:45;99117.72;;;23.47;46.46
43312;BME280;30041;48.300;16.352;2023-07-28T05:57:11;99110.66;;;23.46;46.82
43312;BME280;30041;48.300;16.352;2023-07-28T05:59:36;99113.34;;;23.40;47.05
43312;BME280;30041;48.300;16.352;2023-07-28T06:02:02;99104.69;;;23.38;47.54
43312;BME280;30041;48.300;16.352;2023-07-28T06:04:27;99105.75;;;23.37;47.01
43312;BME280;30041;48.300;16.352;2023-07-28T06:06:53;99111.94;;;23.33;47.02
43312;BME280;30041;48.300;16.352;2023-07-28T06:09:18;99106.00;;;23.31;45.41
43312;BME280;30041;48.300;16.352;2023-07-28T06:11:44;99112.31;;;23.47;47.30
43312;BME280;30041;48.300;16.352;2023-07-28T06:14:10;99115.25;;;23.40;48.38
43312;BME280;30041;48.300;16.352;2023-07-28T06:16:35;99106.59;;;23.38;46.15
43312;BME280;30041;48.300;16.352;2023-07-28T06:19:00;99112.25;;;23.36;45.45
43312;BME280;30041;48.300;16.352;2023-07-28T06:21:26;99122.06;;;23.53;44.77
43312;BME280;30041;48.300;16.352;2023-07-28T06:23:52;99119.41;;;23.63;45.09
43312;BME280;30041;48.300;16.352;2023-07-28T06:26:17;99116.75;;;23.73;44.33
43312;BME280;30041;48.300;16.352;2023-07-28T06:28:42;99119.75;;;23.82;44.63
43312;BME280;30041;48.300;16.352;2023-07-28T06:31:08;99121.66;;;23.87;44.17
43312;BME280;30041;48.300;16.352;2023-07-28T06:33:33;99122.81;;;23.96;43.21
43312;BME280;30041;48.300;16.352;2023-07-28T06:35:59;99122.81;;;23.96;42.87
43312;BME280;30041;48.300;16.352;2023-07-28T06:38:24;99121.72;;;23.92;44.41
43312;BME280;30041;48.300;16.352;2023-07-28T06:40:50;99123.31;;;23.88;45.42
43312;BME280;30041;48.300;16.352;2023-07-28T06:43:15;99119.25;;;23.95;44.56
43312;BME280;30041;48.300;16.352;2023-07-28T06:45:41;99117.94;;;23.98;45.29
43312;BME280;30041;48.300;16.352;2023-07-28T06:48:06;99117.66;;;23.94;44.16
43312;BME280;30041;48.300;16.352;2023-07-28T06:50:32;99124.13;;;23.88;43.90
43312;BME280;30041;48.300;16.352;2023-07-28T06:52:58;99123.84;;;23.85;43.13
43312;BME280;30041;48.300;16.352;2023-07-28T06:55:23;99123.81;;;23.79;42.78
43312;BME280;30041;48.300;16.352;2023-07-28T06:57:49;99112.19;;;23.79;42.44
43312;BME280;30041;48.300;16.352;2023-07-28T07:00:15;99110.59;;;23.83;42.22
43312;BME280;30041;48.300;16.352;2023-07-28T07:02:41;99115.44;;;23.86;43.04
43312;BME280;30041;48.300;16.352;2023-07-28T07:05:07;99112.50;;;23.88;42.64
43312;BME280;30041;48.300;16.352;2023-07-28T07:07:33;99121.41;;;23.88;42.41
43312;BME280;30041;48.300;16.352;2023-07-28T07:09:58;99114.09;;;23.83;42.96
43312;BME280;30041;48.300;16.352;2023-07-28T07:12:24;99117.91;;;23.82;42.24
43312;BME280;30041;48.300;16.352;2023-07-28T07:14:49;99112.75;;;23.81;42.82
43312;BME280;30041;48.300;16.352;2023-07-28T07:17:15;99113.03;;;23.85;42.70
43312;BME280;30041;48.300;16.352;2023-07-28T07:19:40;99111.13;;;23.85;44.13
43312;BME280;30041;48.300;16.352;2023-07-28T07:22:06;99115.75;;;23.85;43.56
43312;BME280;30041;48.300;16.352;2023-07-28T07:24:32;99117.09;;;23.87;43.14
43312;BME280;30041;48.300;16.352;2023-07-28T07:26:58;99114.69;;;23.96;42.54
43312;BME280;30041;48.300;16.352;2023-07-28T07:29:23;99113.59;;;23.97;41.93
43312;BME280;30041;48.300;16.352;2023-07-28T07:31:49;99114.94;;;23.94;41.28
43312;BME280;30041;48.300;16.352;2023-07-28T07:34:15;99108.19;;;23.97;41.64
43312;BME280;30041;48.300;16.352;2023-07-28T07:36:40;99116.31;;;24.02;42.38
43312;BME280;30041;48.300;16.352;2023-07-28T07:39:06;99112.78;;;24.01;41.96
43312;BME280;30041;48.300;16.352;2023-07-28T07:41:31;99115.75;;;24.00;42.06
43312;BME280;30041;48.300;16.352;2023-07-28T07:43:57;99113.34;;;23.98;42.17
43312;BME280;30041;48.300;16.352;2023-07-28T07:46:23;99116.03;;;23.98;42.19
43312;BME280;30041;48.300;16.352;2023-07-28T07:48:49;99123.88;;;24.00;42.49
43312;BME280;30041;48.300;16.352;2023-07-28T07:51:16;99114.94;;;23.99;42.58
43312;BME280;30041;48.300;16.352;2023-07-28T07:53:41;99104.66;;;24.01;42.41
43312;BME280;30041;48.300;16.352;2023-07-28T07:56:07;99106.56;;;24.01;42.69
43312;BME280;30041;48.300;16.352;2023-07-28T07:58:33;99108.72;;;24.04;42.15
43312;BME280;30041;48.300;16.352;2023-07-28T08:00:59;99109.28;;;24.06;42.15
43312;BME280;30041;48.300;16.352;2023-07-28T08:03:25;99111.72;;;24.08;42.36
43312;BME280;30041;48.300;16.352;2023-07-28T08:05:51;99113.91;;;24.11;42.36
43312;BME280;30041;48.300;16.352;2023-07-28T08:08:17;99104.72;;;24.12;42.52
43312;BME280;30041;48.300;16.352;2023-07-28T08:10:43;99102.81;;;24.12;42.55
43312;BME280;30041;48.300;16.352;2023-07-28T08:13:08;99098.19;;;24.13;42.49
43312;BME280;30041;48.300;16.352;2023-07-28T08:15:34;99098.47;;;24.16;42.53
43312;BME280;30041;48.300;16.352;2023-07-28T08:18:00;99104.72;;;24.17;42.63
43312;BME280;30041;48.300;16.352;2023-07-28T08:20:25;99102.81;;;24.17;42.70
43312;BME280;30041;48.300;16.352;2023-07-28T08:22:51;99101.44;;;24.15;42.90
43312;BME280;30041;48.300;16.352;2023-07-28T08:25:16;99102.28;;;24.26;42.74
43312;BME280;30041;48.300;16.352;2023-07-28T08:27:42;99099.84;;;24.24;43.13
43312;BME280;30041;48.300;16.352;2023-07-28T08:30:08;99102.00;;;24.22;43.05
43312;BME280;30041;48.300;16.352;2023-07-28T08:32:34;99108.25;;;24.22;42.80
43312;BME280;30041;48.300;16.352;2023-07-28T08:34:59;99089.28;;;24.22;43.19
43312;BME280;30041;48.300;16.352;2023-07-28T08:37:25;99094.97;;;24.21;43.12
43312;BME280;30041;48.300;16.352;2023-07-28T08:39:50;99102.00;;;24.22;43.00
43312;BME280;30041;48.300;16.352;2023-07-28T08:42:16;99087.41;;;24.23;43.14
43312;BME280;30041;48.300;16.352;2023-07-28T08:44:41;99091.44;;;24.26;43.26
43312;BME280;30041;48.300;16.352;2023-07-28T08:47:07;99103.09;;;24.26;43.25
43312;BME280;30041;48.300;16.352;2023-07-28T08:49:33;99102.84;;;24.28;43.36
43312;BME280;30041;48.300;16.352;2023-07-28T08:52:00;99105.00;;;24.26;43.39
43312;BME280;30041;48.300;16.352;2023-07-28T08:54:25;99107.97;;;24.24;43.52
43312;BME280;30041;48.300;16.352;2023-07-28T08:56:51;99110.41;;;24.26;43.37
43312;BME280;30041;48.300;16.352;2023-07-28T08:59:23;99105.00;;;24.26;43.49
43312;BME280;30041;48.300;16.352;2023-07-28T09:01:50;99109.59;;;24.25;43.32
43312;BME280;30041;48.300;16.352;2023-07-28T09:04:15;99105.53;;;24.28;43.52
43312;BME280;30041;48.300;16.352;2023-07-28T09:06:45;99112.84;;;24.37;43.33
43312;BME280;30041;48.300;16.352;2023-07-28T09:09:10;99107.97;;;24.39;43.17
43312;BME280;30041;48.300;16.352;2023-07-28T09:11:51;99111.78;;;24.38;43.22
43312;BME280;30041;48.300;16.352;2023-07-28T09:14:19;99108.03;;;24.50;43.10
43312;BME280;30041;48.300;16.352;2023-07-28T09:16:48;99102.63;;;24.50;42.95
43312;BME280;30041;48.300;16.352;2023-07-28T09:19:14;99107.47;;;24.53;42.95
43312;BME280;30041;48.300;16.352;2023-07-28T09:21:42;99096.94;;;24.56;43.56
43312;BME280;30041;48.300;16.352;2023-07-28T09:24:10;99105.56;;;24.53;43.23
43312;BME280;30041;48.300;16.352;2023-07-28T09:26:46;99097.47;;;24.48;43.36
43312;BME280;30041;48.300;16.352;2023-07-28T09:29:17;99106.09;;;24.45;43.19
43312;BME280;30041;48.300;16.352;2023-07-28T09:31:47;99092.56;;;24.45;43.21
43312;BME280;30041;48.300;16.352;2023-07-28T09:34:33;99103.09;;;24.47;43.33
43312;BME280;30041;48.300;16.352;2023-07-28T09:37:00;99101.25;;;24.52;43.55
43312;BME280;30041;48.300;16.352;2023-07-28T09:39:26;99089.31;;;24.63;43.51
43312;BME280;30041;48.300;16.352;2023-07-28T09:41:52;99099.06;;;24.64;43.51
43312;BME280;30041;48.300;16.352;2023-07-28T09:44:18;99095.28;;;24.65;43.78
43312;BME280;30041;48.300;16.352;2023-07-28T09:46:52;99093.94;;;24.68;43.67
43312;BME280;30041;48.300;16.352;2023-07-28T09:49:27;99088.78;;;24.67;44.14
43312;BME280;30041;48.300;16.352;2023-07-28T09:51:56;99085.53;;;24.70;44.08
43312;BME280;30041;48.300;16.352;2023-07-28T09:54:28;99079.81;;;24.81;44.25
43312;BME280;30041;48.300;16.352;2023-07-28T09:56:57;99081.69;;;24.91;44.26
43312;BME280;30041;48.300;16.352;2023-07-28T09:59:35;99081.16;;;24.89;43.64
43312;BME280;30041;48.300;16.352;2023-07-28T10:02:01;99081.19;;;24.84;43.92
43312;BME280;30041;48.300;16.352;2023-07-28T10:04:29;99079.56;;;24.73;43.76
43312;BME280;30041;48.300;16.352;2023-07-28T10:06:55;99071.44;;;24.68;44.09
43312;BME280;30041;48.300;16.352;2023-07-28T10:09:20;99071.16;;;24.64;43.90
43312;BME280;30041;48.300;16.352;2023-07-28T10:11:59;99071.97;;;24.64;44.08
43312;BME280;30041;48.300;16.352;2023-07-28T10:14:29;99074.69;;;24.64;44.07
43312;BME280;30041;48.300;16.352;2023-07-28T10:16:59;99079.28;;;24.64;44.11
43312;BME280;30041;48.300;16.352;2023-07-28T10:19:33;99073.06;;;24.63;43.94
43312;BME280;30041;48.300;16.352;2023-07-28T10:22:11;99077.16;;;24.61;43.70
43312;BME280;30041;48.300;16.352;2023-07-28T10:24:53;99077.94;;;24.61;44.05
43312;BME280;30041;48.300;16.352;2023-07-28T10:30:00;99073.34;;;24.72;44.08
43312;BME280;30041;48.300;16.352;2023-07-28T10:32:27;99074.41;;;24.71;44.26
43312;BME280;30041;48.300;16.352;2023-07-28T10:35:00;99067.13;;;24.72;43.93
43312;BME280;30041;48.300;16.352;2023-07-28T10:37:25;99076.31;;;24.71;43.94
43312;BME280;30041;48.300;16.352;2023-07-28T10:42:49;99058.44;;;24.70;43.66
43312;BME280;30041;48.300;16.352;2023-07-28T10:45:15;99065.72;;;24.69;43.93
43312;BME280;30041;48.300;16.352;2023-07-28T10:47:42;99073.34;;;24.67;43.94
43312;BME280;30041;48.300;16.352;2023-07-28T10:50:12;99063.59;;;24.66;43.93
43312;BME280;30041;48.300;16.352;2023-07-28T10:52:41;99070.34;;;24.69;43.95
43312;BME280;30041;48.300;16.352;2023-07-28T10:55:22;99067.38;;;24.70;44.13
43312;BME280;30041;48.300;16.352;2023-07-28T10:57:49;99080.13;;;24.70;44.02
43312;BME280;30041;48.300;16.352;2023-07-28T11:00:18;99082.81;;;24.70;43.81
43312;BME280;30041;48.300;16.352;2023-07-28T11:02:49;99076.31;;;24.71;44.00
43312;BME280;30041;48.300;16.352;2023-07-28T11:05:28;99080.09;;;24.80;44.17
43312;BME280;30041;48.300;16.352;2023-07-28T11:07:58;99069.81;;;24.77;44.30
43312;BME280;30041;48.300;16.352;2023-07-28T11:10:25;99078.75;;;24.77;44.10
43312;BME280;30041;48.300;16.352;2023-07-28T11:12:53;99080.09;;;24.80;43.87
43312;BME280;30041;48.300;16.352;2023-07-28T11:15:19;99077.13;;;24.81;43.78
43312;BME280;30041;48.300;16.352;2023-07-28T11:17:49;99079.56;;;24.83;43.81
43312;BME280;30041;48.300;16.352;2023-07-28T11:20:20;99081.72;;;24.81;44.12
43312;BME280;30041;48.300;16.352;2023-07-28T11:22:52;99082.00;;;24.79;43.79
43312;BME280;30041;48.300;16.352;2023-07-28T11:25:18;99073.59;;;24.76;44.17
43312;BME280;30041;48.300;16.352;2023-07-28T11:27:44;99082.25;;;24.78;44.01
43312;BME280;30041;48.300;16.352;2023-07-28T11:30:10;99082.25;;;24.78;44.33
43312;BME280;30041;48.300;16.352;2023-07-28T11:32:37;99077.91;;;24.82;44.54
43312;BME280;30041;48.300;16.352;2023-07-28T11:35:06;99079.00;;;24.86;44.12
43312;BME280;30041;48.300;16.352;2023-07-28T11:37:34;99070.06;;;24.85;44.38
43312;BME280;30041;48.300;16.352;2023-07-28T11:40:05;99074.16;;;24.83;44.32
43312;BME280;30041;48.300;16.352;2023-07-28T11:42:31;99084.72;;;24.79;44.37
43312;BME280;30041;48.300;16.352;2023-07-28T11:44:57;99076.31;;;24.81;44.37
43312;BME280;30041;48.300;16.352;2023-07-28T11:47:24;99070.84;;;24.91;44.43
43312;BME280;30041;48.300;16.352;2023-07-28T11:49:49;99055.13;;;24.93;44.38
43312;BME280;30041;48.300;16.352;2023-07-28T11:52:15;99074.91;;;24.94;44.61
43312;BME280;30041;48.300;16.352;2023-07-28T11:54:41;99071.94;;;24.95;45.25
43312;BME280;30041;48.300;16.352;2023-07-28T11:57:08;99075.72;;;25.04;45.12
43312;BME280;30041;48.300;16.352;2023-07-28T11:59:34;99071.38;;;25.09;44.59
43312;BME280;30041;48.300;16.352;2023-07-28T12:02:02;99076.50;;;25.05;44.85
43312;BME280;30041;48.300;16.352;2023-07-28T12:04:31;99074.94;;;24.99;44.59
43312;BME280;30041;48.300;16.352;2023-07-28T12:09:26;99070.59;;;24.93;44.81
43312;BME280;30041;48.300;16.352;2023-07-28T12:11:51;99073.31;;;24.93;44.56
43312;BME280;30041;48.300;16.352;2023-07-28T12:14:30;99077.13;;;24.92;44.55
43312;BME280;30041;48.300;16.352;2023-07-28T12:16:56;99079.28;;;24.90;44.54
43312;BME280;30041;48.300;16.352;2023-07-28T12:19:21;99073.88;;;24.90;44.44
43312;BME280;30041;48.300;16.352;2023-07-28T12:21:47;99076.03;;;24.88;44.63
43312;BME280;30041;48.300;16.352;2023-07-28T12:24:13;99076.03;;;24.88;44.55
43312;BME280;30041;48.300;16.352;2023-07-28T12:26:38;99074.38;;;24.86;44.57
43312;BME280;30041;48.300;16.352;2023-07-28T12:29:03;99079.00;;;24.86;44.49
43312;BME280;30041;48.300;16.352;2023-07-28T12:31:29;99095.25;;;24.86;44.24
43312;BME280;30041;48.300;16.352;2023-07-28T12:33:54;99093.66;;;24.90;44.61
43312;BME280;30041;48.300;16.352;2023-07-28T12:36:20;99104.22;;;24.92;44.77
43312;BME280;30041;48.300;16.352;2023-07-28T12:38:45;99108.81;;;24.91;44.88
43312;BME280;30041;48.300;16.352;2023-07-28T12:41:11;99100.66;;;24.91;44.72
43312;BME280;30041;48.300;16.352;2023-07-28T12:43:37;99108.00;;;24.91;44.46
43312;BME280;30041;48.300;16.352;2023-07-28T12:46:02;99107.19;;;24.90;44.41
43312;BME280;30041;48.300;16.352;2023-07-28T12:48:28;99110.16;;;24.89;44.24
43312;BME280;30041;48.300;16.352;2023-07-28T12:50:53;99111.28;;;24.88;44.59
43312;BME280;30041;48.300;16.352;2023-07-28T12:53:19;99114.78;;;24.88;44.55
43312;BME280;30041;48.300;16.352;2023-07-28T12:55:44;99115.84;;;24.87;44.42